Time;durP1;ratioP1;P1;durP2;ratioP2;P2;SDS_P1;SDS_P2;PMS_P1;PMS_P2;Temp;Humidity;BMP_temperature;BMP_pressure;BME280_temperature;BME280_humidity;BME280_pressure;Samples;Min_cycle;Max_cycle;Signal;HPM_P1;HPM_P2
2022/12/07 00:00:16;;;;;;;;;;;2.50;99.90;;;;;;4960054;28;19976;-72
2022/12/07 00:02:41;;;;;;;;;;;2.50;99.90;;;;;;4959906;28;19925;-72
2022/12/07 00:05:07;;;;;;;;;;;2.50;99.90;;;;;;4958307;28;19929;-72
2022/12/07 00:07:32;;;;;;;;;;;2.50;99.90;;;;;;4930047;28;20017;-72
2022/12/07 00:09:58;;;;;;;;;;;2.40;99.90;;;;;;4949488;28;20532;-72
2022/12/07 00:12:24;;;;;;;;;;;2.40;99.90;;;;;;4947364;28;19923;-74
2022/12/07 00:14:49;;;;;;;;;;;2.30;99.90;;;;;;4950387;28;19922;-72
2022/12/07 00:17:15;;;;;;;;;;;2.30;99.90;;;;;;4961070;28;19927;-72
2022/12/07 00:19:40;;;;;;;;;;;2.20;99.90;;;;;;4960383;28;19922;-72
2022/12/07 00:22:06;;;;;;;;;;;2.20;99.90;;;;;;4967104;28;19930;-72
2022/12/07 00:24:31;;;;;;;;;;;2.20;99.90;;;;;;4961770;28;19933;-72
2022/12/07 00:26:57;;;;;;;;;;;2.20;99.90;;;;;;4963226;28;19926;-72
2022/12/07 00:29:23;;;;;;;;;;;2.20;99.90;;;;;;4947448;28;20432;-72
2022/12/07 00:31:49;;;;;;;;;;;2.20;99.90;;;;;;4953035;28;19926;-72
2022/12/07 00:34:16;;;;;;;;;;;2.20;99.90;;;;;;4957606;28;20104;-72
2022/12/07 00:36:41;;;;;;;;;;;2.20;99.90;;;;;;4954825;28;20662;-72
2022/12/07 00:39:08;;;;;;;;;;;2.20;99.90;;;;;;4951389;28;19926;-72
2022/12/07 00:41:33;;;;;;;;;;;2.20;99.90;;;;;;4947898;28;19923;-72
2022/12/07 00:43:59;;;;;;;;;;;2.10;99.90;;;;;;4953328;28;20383;-72
2022/12/07 00:46:25;;;;;;;;;;;2.10;99.90;;;;;;4941687;28;19926;-72
2022/12/07 00:48:51;;;;;;;;;;;2.10;99.90;;;;;;4950004;28;19922;-72
2022/12/07 00:51:18;;;;;;;;;;;2.10;99.90;;;;;;4972241;28;19941;-72
2022/12/07 00:53:44;;;;;;;;;;;2.10;99.90;;;;;;4950118;28;20409;-72
2022/12/07 00:56:19;;;;;;;;;;;2.20;99.90;;;;;;4962805;28;19997;-72
2022/12/07 00:58:49;;;;;;;;;;;2.20;99.90;;;;;;4950606;28;19970;-72
2022/12/07 01:01:14;;;;;;;;;;;2.20;99.90;;;;;;4958347;28;20411;-72
2022/12/07 01:03:40;;;;;;;;;;;2.20;99.90;;;;;;4942323;28;19922;-72
2022/12/07 01:06:05;;;;;;;;;;;2.10;99.90;;;;;;4938702;28;19945;-72
2022/12/07 01:08:31;;;;;;;;;;;2.00;99.90;;;;;;4953779;28;19933;-71
2022/12/07 01:10:58;;;;;;;;;;;1.90;99.90;;;;;;4933688;28;20287;-72
2022/12/07 01:13:23;;;;;;;;;;;1.80;99.90;;;;;;4954156;28;19926;-72
2022/12/07 01:15:49;;;;;;;;;;;1.60;99.90;;;;;;4933642;28;19954;-72
2022/12/07 01:18:14;;;;;;;;;;;1.50;99.90;;;;;;4940383;28;19965;-72
2022/12/07 01:20:40;;;;;;;;;;;1.40;99.90;;;;;;4924845;29;19926;-72
2022/12/07 01:23:06;;;;;;;;;;;1.40;99.90;;;;;;4960402;28;19961;-72
2022/12/07 01:25:31;;;;;;;;;;;1.40;99.90;;;;;;4932335;28;19933;-72
2022/12/07 01:27:57;;;;;;;;;;;1.40;99.90;;;;;;4935145;29;19933;-72
2022/12/07 01:30:23;;;;;;;;;;;1.50;99.90;;;;;;4965877;28;20021;-72
2022/12/07 01:32:48;;;;;;;;;;;1.70;99.90;;;;;;4932588;28;19922;-72
2022/12/07 01:35:14;;;;;;;;;;;1.80;99.90;;;;;;4957714;28;19926;-72
2022/12/07 01:37:39;;;;;;;;;;;1.90;99.90;;;;;;4940213;28;20255;-72
2022/12/07 01:40:06;;;;;;;;;;;1.90;99.90;;;;;;4959268;28;19926;-72
2022/12/07 01:42:31;;;;;;;;;;;1.80;99.90;;;;;;4938751;28;20299;-72
2022/12/07 01:45:16;;;;;;;;;;;1.80;99.90;;;;;;4944014;28;19929;-72
2022/12/07 01:47:43;;;;;;;;;;;1.70;99.90;;;;;;4956460;28;20044;-72
2022/12/07 01:50:09;;;;;;;;;;;1.70;99.90;;;;;;4957940;28;19980;-72
2022/12/07 01:52:37;;;;;;;;;;;1.70;99.90;;;;;;4944102;28;19985;-72
2022/12/07 01:55:04;;;;;;;;;;;1.80;99.90;;;;;;4960173;28;19929;-72
2022/12/07 01:57:31;;;;;;;;;;;1.90;99.90;;;;;;4956285;28;19977;-72
2022/12/07 01:59:57;;;;;;;;;;;2.10;99.90;;;;;;4944014;29;19997;-72
2022/12/07 02:02:24;;;;;;;;;;;2.30;99.90;;;;;;4947159;28;19989;-72
2022/12/07 02:04:51;;;;;;;;;;;2.50;99.90;;;;;;4962357;28;19922;-72
2022/12/07 02:07:20;;;;;;;;;;;2.80;99.90;;;;;;4950105;28;20290;-72
2022/12/07 02:09:45;;;;;;;;;;;3.00;99.90;;;;;;4945689;28;19966;-72
2022/12/07 02:12:11;;;;;;;;;;;3.10;99.90;;;;;;4950646;28;19978;-72
2022/12/07 02:14:37;;;;;;;;;;;3.10;99.90;;;;;;4946699;28;19928;-72
2022/12/07 02:17:09;;;;;;;;;;;3.10;99.90;;;;;;4934448;28;19922;-72
2022/12/07 02:19:46;;;;;;;;;;;3.10;99.90;;;;;;4960861;28;19923;-72
2022/12/07 02:22:35;;;;;;;;;;;3.00;99.90;;;;;;4938018;28;19937;-72
2022/12/07 02:25:10;;;;;;;;;;;2.90;99.90;;;;;;4909464;28;20009;-72
2022/12/07 02:27:47;;;;;;;;;;;2.80;99.90;;;;;;4943726;28;19927;-72
2022/12/07 02:30:14;;;;;;;;;;;2.80;99.90;;;;;;4953950;28;19930;-72
2022/12/07 02:32:42;;;;;;;;;;;2.80;99.90;;;;;;4959278;28;20831;-72
2022/12/07 02:35:19;;;;;;;;;;;2.90;99.90;;;;;;4938136;28;19969;-72
2022/12/07 02:37:57;;;;;;;;;;;2.90;99.90;;;;;;4955133;28;19926;-72
2022/12/07 02:40:40;;;;;;;;;;;3.00;99.90;;;;;;4955902;28;20415;-72
2022/12/07 02:43:18;;;;;;;;;;;3.10;99.90;;;;;;4957443;28;19926;-72
2022/12/07 02:45:44;;;;;;;;;;;3.10;99.90;;;;;;4966411;28;19980;-72
2022/12/07 02:48:11;;;;;;;;;;;3.10;99.90;;;;;;4965343;28;19921;-72
2022/12/07 02:50:37;;;;;;;;;;;3.10;99.90;;;;;;4955036;28;19982;-72
2022/12/07 02:53:03;;;;;;;;;;;3.00;99.90;;;;;;4959528;28;20582;-72
2022/12/07 02:55:30;;;;;;;;;;;3.10;99.90;;;;;;4940056;29;19929;-72
2022/12/07 02:58:11;;;;;;;;;;;3.10;99.90;;;;;;4955265;28;20349;-72
2022/12/07 03:00:52;;;;;;;;;;;3.20;99.90;;;;;;4976019;28;19936;-72
2022/12/07 03:03:17;;;;;;;;;;;3.20;99.90;;;;;;4961188;28;19930;-72
2022/12/07 03:05:52;;;;;;;;;;;3.10;99.90;;;;;;4964219;28;20373;-72
2022/12/07 03:08:35;;;;;;;;;;;3.10;99.90;;;;;;4949338;28;19994;-72
2022/12/07 03:11:06;;;;;;;;;;;3.00;99.90;;;;;;4943059;28;19973;-72
2022/12/07 03:13:44;;;;;;;;;;;2.90;99.90;;;;;;4937572;29;19926;-72
2022/12/07 03:16:15;;;;;;;;;;;2.80;99.90;;;;;;4931706;28;20536;-72
2022/12/07 03:18:44;;;;;;;;;;;2.80;99.90;;;;;;4960672;28;19945;-72
2022/12/07 03:21:13;;;;;;;;;;;2.70;99.90;;;;;;4954362;28;20393;-72
2022/12/07 03:23:40;;;;;;;;;;;2.60;99.90;;;;;;4970709;28;19922;-72
2022/12/07 03:26:08;;;;;;;;;;;2.60;99.90;;;;;;4954359;28;19930;-72
2022/12/07 03:28:36;;;;;;;;;;;2.60;99.90;;;;;;4951652;28;19937;-72
2022/12/07 03:31:10;;;;;;;;;;;2.60;99.90;;;;;;4953824;28;19938;-72
2022/12/07 03:33:47;;;;;;;;;;;2.60;99.90;;;;;;4953335;28;20060;-72
2022/12/07 03:36:36;;;;;;;;;;;2.60;99.90;;;;;;4953465;28;19927;-72
2022/12/07 03:39:13;;;;;;;;;;;2.60;99.90;;;;;;4954528;28;19930;-72
2022/12/07 03:41:39;;;;;;;;;;;2.60;99.90;;;;;;4971363;28;19933;-72
2022/12/07 03:44:05;;;;;;;;;;;2.60;99.90;;;;;;4967121;28;19930;-72
2022/12/07 03:46:43;;;;;;;;;;;2.50;99.90;;;;;;4953705;28;19926;-72
2022/12/07 03:49:23;;;;;;;;;;;2.50;99.90;;;;;;4953944;28;19923;-72
2022/12/07 03:51:56;;;;;;;;;;;2.40;99.90;;;;;;4940682;29;19926;-72
2022/12/07 03:54:44;;;;;;;;;;;2.40;99.90;;;;;;4943259;28;19922;-72
2022/12/07 03:57:10;;;;;;;;;;;2.40;99.90;;;;;;4961556;28;20064;-72
2022/12/07 03:59:37;;;;;;;;;;;2.30;99.90;;;;;;4968195;28;19925;-72
2022/12/07 04:02:04;;;;;;;;;;;2.30;99.90;;;;;;4958587;28;19954;-72
2022/12/07 04:04:30;;;;;;;;;;;2.30;99.90;;;;;;4969982;28;20390;-72
2022/12/07 04:06:55;;;;;;;;;;;2.30;99.90;;;;;;4958185;28;19981;-72
2022/12/07 04:09:21;;;;;;;;;;;2.20;99.90;;;;;;4950206;28;19994;-72
2022/12/07 04:11:47;;;;;;;;;;;2.20;99.90;;;;;;4941748;28;19937;-72
2022/12/07 04:14:18;;;;;;;;;;;2.10;99.90;;;;;;4959384;28;19969;-72
2022/12/07 04:16:48;;;;;;;;;;;2.10;99.90;;;;;;4943261;28;19922;-72
2022/12/07 04:19:14;;;;;;;;;;;2.00;99.90;;;;;;4968838;28;20009;-72
2022/12/07 04:21:39;;;;;;;;;;;1.90;99.90;;;;;;4956408;28;19923;-72
2022/12/07 04:24:05;;;;;;;;;;;1.90;99.90;;;;;;4944664;28;19933;-72
2022/12/07 04:26:31;;;;;;;;;;;1.90;99.90;;;;;;4953089;28;20219;-72
2022/12/07 04:28:56;;;;;;;;;;;1.80;99.90;;;;;;4941359;28;20112;-72
2022/12/07 04:31:22;;;;;;;;;;;1.80;99.90;;;;;;4953585;28;19938;-72
2022/12/07 04:33:47;;;;;;;;;;;1.70;99.90;;;;;;4945186;28;19922;-72
2022/12/07 04:36:13;;;;;;;;;;;1.70;99.90;;;;;;4952395;28;19922;-72
2022/12/07 04:38:39;;;;;;;;;;;1.60;99.90;;;;;;4947421;28;19945;-72
2022/12/07 04:41:05;;;;;;;;;;;1.50;99.90;;;;;;4975782;28;20204;-72
2022/12/07 04:43:31;;;;;;;;;;;1.40;99.90;;;;;;4974153;28;19930;-72
2022/12/07 04:45:57;;;;;;;;;;;1.40;99.90;;;;;;4932578;28;19926;-72
2022/12/07 04:48:22;;;;;;;;;;;1.30;99.90;;;;;;4939237;28;19930;-72
2022/12/07 04:50:49;;;;;;;;;;;1.20;99.90;;;;;;4945351;28;20398;-72
2022/12/07 04:53:15;;;;;;;;;;;1.20;99.90;;;;;;4952548;28;20020;-72
2022/12/07 04:55:40;;;;;;;;;;;1.20;99.90;;;;;;4936831;28;20017;-72
2022/12/07 04:58:06;;;;;;;;;;;1.20;99.90;;;;;;4960198;28;20413;-72
2022/12/07 05:00:32;;;;;;;;;;;1.10;99.90;;;;;;4953101;28;19931;-72
2022/12/07 05:02:57;;;;;;;;;;;1.10;99.90;;;;;;4940251;28;19933;-72
2022/12/07 05:05:24;;;;;;;;;;;1.10;99.90;;;;;;4957986;28;19922;-72
2022/12/07 05:07:50;;;;;;;;;;;1.20;99.90;;;;;;4957223;28;20022;-72
2022/12/07 05:10:15;;;;;;;;;;;1.40;99.90;;;;;;4946283;28;19953;-73
2022/12/07 05:12:41;;;;;;;;;;;1.70;99.90;;;;;;4932137;28;20426;-73
2022/12/07 05:15:07;;;;;;;;;;;2.00;99.90;;;;;;4940709;28;20406;-73
2022/12/07 05:17:32;;;;;;;;;;;2.20;99.90;;;;;;4923841;28;19922;-73
2022/12/07 05:19:58;;;;;;;;;;;2.40;99.90;;;;;;4939717;28;19933;-73
2022/12/07 05:22:27;;;;;;;;;;;2.60;99.90;;;;;;4961543;28;20009;-72
2022/12/07 05:24:53;;;;;;;;;;;2.60;99.90;;;;;;4941661;28;19926;-72
2022/12/07 05:27:19;;;;;;;;;;;2.70;99.90;;;;;;4955354;28;19930;-72
2022/12/07 05:29:45;;;;;;;;;;;2.70;99.90;;;;;;4958563;28;20307;-72
2022/12/07 05:32:10;;;;;;;;;;;2.70;99.90;;;;;;4935851;28;19981;-72
2022/12/07 05:34:36;;;;;;;;;;;2.70;99.90;;;;;;4943745;28;19922;-72
2022/12/07 05:37:01;;;;;;;;;;;2.70;99.90;;;;;;4947983;28;19986;-72
2022/12/07 05:39:27;;;;;;;;;;;2.70;99.90;;;;;;4952470;28;20401;-72
2022/12/07 05:44:37;;;;;;;;;;;2.60;99.90;;;;;;4957227;28;19930;-72
2022/12/07 05:47:03;;;;;;;;;;;2.50;99.90;;;;;;4958974;28;19976;-72
2022/12/07 05:49:29;;;;;;;;;;;2.40;99.90;;;;;;4974721;28;19922;-72
2022/12/07 05:51:54;;;;;;;;;;;2.30;99.90;;;;;;4938284;28;20072;-72
2022/12/07 05:54:20;;;;;;;;;;;2.30;99.90;;;;;;4954805;28;20459;-72
2022/12/07 05:56:45;;;;;;;;;;;2.20;99.90;;;;;;4956207;28;19977;-72
2022/12/07 05:59:23;;;;;;;;;;;2.10;99.90;;;;;;4941341;28;20203;-72
2022/12/07 06:02:11;;;;;;;;;;;2.00;99.90;;;;;;4953163;28;19941;-72
2022/12/07 06:04:41;;;;;;;;;;;2.00;99.90;;;;;;4958516;28;19926;-72
2022/12/07 06:07:08;;;;;;;;;;;1.90;99.90;;;;;;4941156;28;19938;-72
2022/12/07 06:09:33;;;;;;;;;;;1.90;99.90;;;;;;4946545;28;19926;-72
2022/12/07 06:14:43;;;;;;;;;;;1.80;99.90;;;;;;4951864;28;19933;-73
2022/12/07 06:17:09;;;;;;;;;;;1.70;99.90;;;;;;4945068;28;20301;-73
2022/12/07 06:19:35;;;;;;;;;;;1.60;99.90;;;;;;4944174;28;19989;-73
2022/12/07 06:22:01;;;;;;;;;;;1.50;99.90;;;;;;4940228;28;20809;-73
2022/12/07 06:24:26;;;;;;;;;;;1.50;99.90;;;;;;4955512;28;20343;-73
2022/12/07 06:26:52;;;;;;;;;;;1.40;99.90;;;;;;4935648;28;19933;-73
2022/12/07 06:29:18;;;;;;;;;;;1.30;99.90;;;;;;4966428;28;19937;-73
2022/12/07 06:31:43;;;;;;;;;;;1.30;99.90;;;;;;4961965;28;20386;-72
2022/12/07 06:34:10;;;;;;;;;;;1.20;99.90;;;;;;4959814;28;19922;-72
2022/12/07 06:36:36;;;;;;;;;;;1.10;99.90;;;;;;4969066;28;20027;-72
2022/12/07 06:39:02;;;;;;;;;;;1.10;99.90;;;;;;4963326;28;20432;-73
2022/12/07 06:41:28;;;;;;;;;;;1.00;99.90;;;;;;4965801;28;20008;-72
2022/12/07 06:43:53;;;;;;;;;;;0.90;99.90;;;;;;4950686;28;20069;-72
2022/12/07 06:46:19;;;;;;;;;;;0.80;99.90;;;;;;4933759;28;19929;-73
2022/12/07 06:48:45;;;;;;;;;;;0.70;99.90;;;;;;4962379;28;20006;-72
2022/12/07 06:51:10;;;;;;;;;;;0.60;99.90;;;;;;4955809;28;20461;-73
2022/12/07 06:53:37;;;;;;;;;;;0.50;99.90;;;;;;4959148;28;19922;-73
2022/12/07 06:56:03;;;;;;;;;;;0.40;99.90;;;;;;4963632;28;19930;-72
2022/12/07 06:58:28;;;;;;;;;;;0.40;99.90;;;;;;4947302;28;19933;-72
2022/12/07 07:00:54;;;;;;;;;;;0.40;99.90;;;;;;4942462;28;19930;-73
2022/12/07 07:03:19;;;;;;;;;;;0.40;99.90;;;;;;4944900;28;20008;-72
2022/12/07 07:05:45;;;;;;;;;;;0.50;99.90;;;;;;4938693;28;19980;-72
2022/12/07 07:08:11;;;;;;;;;;;0.50;99.90;;;;;;4960214;28;19922;-72
2022/12/07 07:10:37;;;;;;;;;;;0.50;99.90;;;;;;4967940;28;20346;-72
2022/12/07 07:13:02;;;;;;;;;;;0.60;99.90;;;;;;4954029;28;19923;-72
2022/12/07 07:15:28;;;;;;;;;;;0.60;99.90;;;;;;4946881;28;20053;-72
2022/12/07 07:17:54;;;;;;;;;;;0.70;99.90;;;;;;4946078;29;19926;-72
2022/12/07 07:20:19;;;;;;;;;;;0.70;99.90;;;;;;4928311;28;19922;-72
2022/12/07 07:22:45;;;;;;;;;;;0.70;99.90;;;;;;4937706;28;19930;-73
2022/12/07 07:25:10;;;;;;;;;;;0.80;99.90;;;;;;4944658;28;19945;-72
2022/12/07 07:27:36;;;;;;;;;;;0.90;99.90;;;;;;4943240;29;19929;-72
2022/12/07 07:30:02;;;;;;;;;;;0.90;99.90;;;;;;4931157;28;20390;-72
2022/12/07 07:32:28;;;;;;;;;;;0.90;99.90;;;;;;4932855;28;19922;-72
2022/12/07 07:34:53;;;;;;;;;;;0.80;99.90;;;;;;4936557;28;19933;-72
2022/12/07 07:37:19;;;;;;;;;;;0.80;99.90;;;;;;4956904;28;19926;-72
2022/12/07 07:39:44;;;;;;;;;;;0.70;99.90;;;;;;4937745;28;19927;-72
2022/12/07 07:42:10;;;;;;;;;;;0.60;99.90;;;;;;4935738;28;20445;-72
2022/12/07 07:44:35;;;;;;;;;;;0.50;99.90;;;;;;4953678;28;19925;-72
2022/12/07 07:47:01;;;;;;;;;;;0.50;99.90;;;;;;4937227;28;20595;-72
2022/12/07 07:49:27;;;;;;;;;;;0.40;99.90;;;;;;4937289;28;19946;-72
2022/12/07 07:51:53;;;;;;;;;;;0.30;99.90;;;;;;4953477;28;19930;-73
2022/12/07 07:54:18;;;;;;;;;;;0.20;99.90;;;;;;4945130;28;19923;-74
2022/12/07 07:56:44;;;;;;;;;;;0.20;99.90;;;;;;4956667;28;19922;-74
2022/12/07 07:59:10;;;;;;;;;;;0.10;99.90;;;;;;4942479;28;19933;-74
2022/12/07 08:01:35;;;;;;;;;;;0.20;99.90;;;;;;4938034;28;19935;-73
2022/12/07 08:04:01;;;;;;;;;;;0.20;99.90;;;;;;4957517;28;19930;-74
2022/12/07 08:06:27;;;;;;;;;;;0.10;99.90;;;;;;4944637;28;19969;-74
2022/12/07 08:08:54;;;;;;;;;;;0.10;99.90;;;;;;4940291;28;19930;-73
2022/12/07 08:11:19;;;;;;;;;;;0.10;99.90;;;;;;4968085;28;19935;-73
2022/12/07 08:13:46;;;;;;;;;;;0.10;99.90;;;;;;4935497;28;20327;-73
2022/12/07 08:16:12;;;;;;;;;;;0.10;99.90;;;;;;4960511;28;19926;-74
2022/12/07 08:18:39;;;;;;;;;;;0.10;99.90;;;;;;4958573;28;19923;-74
2022/12/07 08:21:05;;;;;;;;;;;0.20;99.90;;;;;;4951250;28;20370;-74
2022/12/07 08:23:30;;;;;;;;;;;0.30;99.90;;;;;;4948366;28;19926;-74
2022/12/07 08:26:00;;;;;;;;;;;0.50;99.90;;;;;;4941496;28;19922;-76
2022/12/07 08:28:26;;;;;;;;;;;0.80;99.90;;;;;;4952592;28;19953;-74
2022/12/07 08:30:51;;;;;;;;;;;1.20;99.90;;;;;;4940189;28;20605;-74
2022/12/07 08:33:17;;;;;;;;;;;1.60;99.90;;;;;;4945054;28;19933;-74
2022/12/07 08:35:42;;;;;;;;;;;2.00;99.90;;;;;;4936555;28;20298;-74
2022/12/07 08:38:08;;;;;;;;;;;2.30;99.90;;;;;;4954053;28;19929;-74
2022/12/07 08:40:35;;;;;;;;;;;2.50;99.90;;;;;;4951468;28;19923;-74
2022/12/07 08:43:00;;;;;;;;;;;2.70;99.90;;;;;;4960604;28;19929;-74
2022/12/07 08:45:27;;;;;;;;;;;2.70;99.90;;;;;;4940822;28;19927;-74
2022/12/07 08:48:05;;;;;;;;;;;2.70;99.90;;;;;;4966322;28;19972;-73
2022/12/07 08:50:31;;;;;;;;;;;2.70;99.90;;;;;;4949194;28;19937;-74
2022/12/07 08:52:57;;;;;;;;;;;2.60;99.90;;;;;;4965291;28;19964;-74
2022/12/07 08:55:23;;;;;;;;;;;2.50;99.90;;;;;;4941333;28;19956;-73
2022/12/07 08:57:49;;;;;;;;;;;2.40;99.90;;;;;;4943799;28;19922;-74
2022/12/07 09:00:16;;;;;;;;;;;2.40;99.90;;;;;;4944578;28;20440;-74
2022/12/07 09:02:43;;;;;;;;;;;2.30;99.90;;;;;;4958398;28;19926;-74
2022/12/07 09:05:09;;;;;;;;;;;2.20;99.90;;;;;;4927907;29;19930;-74
2022/12/07 09:07:35;;;;;;;;;;;2.10;99.90;;;;;;4932007;29;19922;-73
2022/12/07 09:10:01;;;;;;;;;;;2.10;99.90;;;;;;4944444;28;20659;-73
2022/12/07 09:12:26;;;;;;;;;;;2.00;99.90;;;;;;4960744;28;19981;-74
2022/12/07 09:14:52;;;;;;;;;;;1.90;99.90;;;;;;4941947;28;19922;-74
2022/12/07 09:17:17;;;;;;;;;;;1.80;99.90;;;;;;4960638;28;19928;-73
2022/12/07 09:19:43;;;;;;;;;;;1.80;99.90;;;;;;4936918;28;20576;-73
2022/12/07 09:22:09;;;;;;;;;;;1.80;99.90;;;;;;4941755;28;20357;-73
2022/12/07 09:24:35;;;;;;;;;;;1.80;99.90;;;;;;4956208;28;19969;-73
2022/12/07 09:27:00;;;;;;;;;;;1.80;99.90;;;;;;4960286;28;19927;-74
2022/12/07 09:29:26;;;;;;;;;;;1.80;99.90;;;;;;4948414;28;19929;-74
2022/12/07 09:31:52;;;;;;;;;;;1.90;99.90;;;;;;4964289;28;20356;-74
2022/12/07 09:34:17;;;;;;;;;;;2.00;99.90;;;;;;4950010;28;19926;-74
2022/12/07 09:36:43;;;;;;;;;;;2.20;99.90;;;;;;4958761;28;19926;-74
2022/12/07 09:39:09;;;;;;;;;;;2.50;99.90;;;;;;4957989;28;20054;-74
2022/12/07 09:41:38;;;;;;;;;;;2.70;99.90;;;;;;4945910;28;19944;-74
2022/12/07 09:44:09;;;;;;;;;;;2.80;99.90;;;;;;4959418;28;19922;-73
2022/12/07 09:46:37;;;;;;;;;;;3.00;99.90;;;;;;4965143;28;20021;-74
2022/12/07 09:49:03;;;;;;;;;;;3.10;99.90;;;;;;4954900;28;19929;-74
2022/12/07 09:51:28;;;;;;;;;;;3.20;99.90;;;;;;4989354;28;20394;-74
2022/12/07 09:53:56;;;;;;;;;;;3.30;99.90;;;;;;4954429;28;19977;-74
2022/12/07 09:56:22;;;;;;;;;;;3.20;99.90;;;;;;4964004;28;20013;-74
2022/12/07 09:58:48;;;;;;;;;;;3.20;99.90;;;;;;4959280;28;19926;-74
2022/12/07 10:01:15;;;;;;;;;;;3.20;99.90;;;;;;4966906;28;20474;-74
2022/12/07 10:03:51;;;;;;;;;;;3.10;99.90;;;;;;4959230;28;19930;-74
2022/12/07 10:06:17;;;;;;;;;;;3.10;99.90;;;;;;4964465;28;20401;-74
2022/12/07 10:08:43;;;;;;;;;;;3.10;99.90;;;;;;4948842;28;19926;-74
2022/12/07 10:11:10;;;;;;;;;;;3.20;99.90;;;;;;4959499;28;20013;-74
2022/12/07 10:13:38;;;;;;;;;;;3.20;99.90;;;;;;4937867;28;19931;-74
2022/12/07 10:16:06;;;;;;;;;;;3.30;99.90;;;;;;4957915;28;20343;-74
2022/12/07 10:18:40;;;;;;;;;;;3.40;99.90;;;;;;4939574;28;19956;-74
2022/12/07 10:21:12;;;;;;;;;;;3.50;99.90;;;;;;4957362;28;19926;-74
2022/12/07 10:23:57;;;;;;;;;;;3.60;99.90;;;;;;4961799;28;19923;-74
2022/12/07 10:26:28;;;;;;;;;;;3.80;99.90;;;;;;4958197;28;20017;-74
2022/12/07 10:28:53;;;;;;;;;;;3.90;99.90;;;;;;4950721;28;19926;-74
2022/12/07 10:31:21;;;;;;;;;;;4.10;99.90;;;;;;4948443;28;19933;-74
2022/12/07 10:33:54;;;;;;;;;;;4.20;99.90;;;;;;4954775;28;20032;-74
2022/12/07 10:36:27;;;;;;;;;;;4.30;99.90;;;;;;4955216;28;19988;-73
2022/12/07 10:39:00;;;;;;;;;;;4.50;99.90;;;;;;4951659;28;20043;-73
2022/12/07 10:41:26;;;;;;;;;;;4.60;99.90;;;;;;4958191;28;19953;-74
2022/12/07 10:43:53;;;;;;;;;;;4.70;99.90;;;;;;4960787;28;19929;-74
2022/12/07 10:46:18;;;;;;;;;;;4.70;99.90;;;;;;4971056;28;19977;-73
2022/12/07 10:48:50;;;;;;;;;;;4.70;99.90;;;;;;4930904;29;19974;-74
2022/12/07 10:51:16;;;;;;;;;;;4.70;99.90;;;;;;4963792;28;19930;-73
2022/12/07 10:54:02;;;;;;;;;;;4.80;99.90;;;;;;4959805;28;19926;-74
2022/12/07 10:56:27;;;;;;;;;;;4.70;99.90;;;;;;4959536;28;19926;-74
2022/12/07 10:59:08;;;;;;;;;;;4.60;99.90;;;;;;4965392;28;19926;-74
2022/12/07 11:01:54;;;;;;;;;;;4.60;99.90;;;;;;4959020;28;19977;-73
2022/12/07 11:04:19;;;;;;;;;;;4.50;99.90;;;;;;4976357;28;19926;-73
2022/12/07 11:06:50;;;;;;;;;;;4.50;99.90;;;;;;4958043;28;20413;-73
2022/12/07 11:09:21;;;;;;;;;;;4.40;99.90;;;;;;4952532;28;20511;-73
2022/12/07 11:11:53;;;;;;;;;;;4.40;99.90;;;;;;4952589;28;19942;-73
2022/12/07 11:14:31;;;;;;;;;;;4.30;99.90;;;;;;4949295;28;19929;-73
2022/12/07 11:17:03;;;;;;;;;;;4.30;99.90;;;;;;4960489;28;19923;-73
2022/12/07 11:19:40;;;;;;;;;;;4.30;99.90;;;;;;4948102;28;20565;-73
2022/12/07 11:22:15;;;;;;;;;;;4.20;99.90;;;;;;4960625;28;20327;-73
2022/12/07 11:24:53;;;;;;;;;;;4.20;99.90;;;;;;4952064;28;20041;-73
2022/12/07 11:27:19;;;;;;;;;;;4.10;99.90;;;;;;4960449;28;19930;-74
2022/12/07 11:30:03;;;;;;;;;;;4.00;99.90;;;;;;4961300;28;19922;-73
2022/12/07 11:32:45;;;;;;;;;;;4.10;99.90;;;;;;4958586;28;19941;-74
2022/12/07 11:35:30;;;;;;;;;;;4.20;99.90;;;;;;4963963;28;19933;-74
2022/12/07 11:37:59;;;;;;;;;;;4.40;99.90;;;;;;4946367;28;19926;-73
2022/12/07 11:40:25;;;;;;;;;;;4.60;99.90;;;;;;4966111;28;20009;-74
2022/12/07 11:42:53;;;;;;;;;;;4.80;99.90;;;;;;4945321;28;20010;-74
2022/12/07 11:45:25;;;;;;;;;;;4.90;99.90;;;;;;4959799;28;19926;-74
2022/12/07 11:48:10;;;;;;;;;;;5.10;99.90;;;;;;4935062;28;19973;-74
2022/12/07 11:50:38;;;;;;;;;;;5.20;99.90;;;;;;4949697;28;19930;-74
2022/12/07 11:53:07;;;;;;;;;;;5.30;99.90;;;;;;4953744;28;19938;-75
2022/12/07 11:55:46;;;;;;;;;;;5.40;99.90;;;;;;4960851;28;20499;-74
2022/12/07 11:58:14;;;;;;;;;;;5.40;99.90;;;;;;4946868;28;19938;-74
2022/12/07 12:00:41;;;;;;;;;;;5.40;99.90;;;;;;4962515;28;19930;-74
2022/12/07 12:03:12;;;;;;;;;;;5.40;99.90;;;;;;4966851;28;20019;-74
2022/12/07 12:05:39;;;;;;;;;;;5.40;99.90;;;;;;4948980;28;19923;-73
2022/12/07 12:08:14;;;;;;;;;;;5.30;99.90;;;;;;4956112;28;19969;-73
2022/12/07 12:10:48;;;;;;;;;;;5.30;99.90;;;;;;4967291;28;19926;-74
2022/12/07 12:13:20;;;;;;;;;;;5.30;99.90;;;;;;4956090;28;20290;-73
2022/12/07 12:15:57;;;;;;;;;;;5.20;99.90;;;;;;4961263;28;19980;-74
2022/12/07 12:18:33;;;;;;;;;;;5.10;99.90;;;;;;4953100;28;20307;-74
2022/12/07 12:21:04;;;;;;;;;;;5.00;99.90;;;;;;4963948;28;19972;-73
2022/12/07 12:23:29;;;;;;;;;;;5.00;99.90;;;;;;4949797;28;19922;-74
2022/12/07 12:25:58;;;;;;;;;;;4.90;99.90;;;;;;4957496;28;19987;-74
2022/12/07 12:28:29;;;;;;;;;;;4.80;99.90;;;;;;4964172;28;20457;-72
2022/12/07 12:31:14;;;;;;;;;;;4.70;99.90;;;;;;4936466;28;20298;-73
2022/12/07 12:33:57;;;;;;;;;;;4.60;99.90;;;;;;4967482;28;19948;-73
2022/12/07 12:36:25;;;;;;;;;;;4.50;99.90;;;;;;4957981;28;19927;-74
2022/12/07 12:39:15;;;;;;;;;;;4.50;99.90;;;;;;4959824;28;19926;-73
2022/12/07 12:42:05;;;;;;;;;;;4.50;99.90;;;;;;4951853;28;20017;-73
2022/12/07 12:44:31;;;;;;;;;;;4.60;99.90;;;;;;4947354;28;20036;-73
2022/12/07 12:46:57;;;;;;;;;;;4.60;99.90;;;;;;4947216;28;19926;-73
2022/12/07 12:49:28;;;;;;;;;;;4.60;99.90;;;;;;4951902;28;20498;-73
2022/12/07 12:51:56;;;;;;;;;;;4.60;99.90;;;;;;4933529;29;20365;-73
2022/12/07 12:54:40;;;;;;;;;;;4.60;99.90;;;;;;4932364;29;19926;-73
2022/12/07 12:57:26;;;;;;;;;;;4.60;99.90;;;;;;4931063;28;19998;-74
2022/12/07 12:59:51;;;;;;;;;;;4.60;99.90;;;;;;4931627;28;20400;-73
2022/12/07 13:02:37;;;;;;;;;;;4.70;99.90;;;;;;4935799;28;19933;-73
2022/12/07 13:05:03;;;;;;;;;;;4.70;99.90;;;;;;4951890;28;20401;-74
2022/12/07 13:07:46;;;;;;;;;;;4.70;99.90;;;;;;4949063;29;19930;-74
2022/12/07 13:10:30;;;;;;;;;;;4.70;99.90;;;;;;4948886;28;20000;-73
2022/12/07 13:13:04;;;;;;;;;;;4.70;99.90;;;;;;4934961;29;19937;-73
2022/12/07 13:15:36;;;;;;;;;;;4.70;99.90;;;;;;4942417;28;20009;-74
2022/12/07 13:18:08;;;;;;;;;;;4.70;99.90;;;;;;4964445;28;20005;-75
2022/12/07 13:20:42;;;;;;;;;;;4.60;99.90;;;;;;4945988;28;19922;-75
2022/12/07 13:23:12;;;;;;;;;;;4.50;99.90;;;;;;4960784;28;20390;-74
2022/12/07 13:25:47;;;;;;;;;;;4.50;99.90;;;;;;4950330;28;20393;-74
2022/12/07 13:28:17;;;;;;;;;;;4.40;99.90;;;;;;4949773;28;19926;-73
2022/12/07 13:30:58;;;;;;;;;;;4.30;99.90;;;;;;4933154;29;19931;-75
2022/12/07 13:33:24;;;;;;;;;;;4.30;99.90;;;;;;4951033;28;19926;-74
2022/12/07 13:35:53;;;;;;;;;;;4.30;99.90;;;;;;4964473;28;19922;-73
2022/12/07 13:38:26;;;;;;;;;;;4.30;99.90;;;;;;4939474;28;19933;-73
2022/12/07 13:41:11;;;;;;;;;;;4.30;99.90;;;;;;4933839;28;19997;-73
2022/12/07 13:43:44;;;;;;;;;;;4.20;99.90;;;;;;4963360;28;19926;-73
2022/12/07 13:46:16;;;;;;;;;;;4.20;99.90;;;;;;4938182;28;19962;-73
2022/12/07 13:48:47;;;;;;;;;;;4.20;99.90;;;;;;4970175;28;20259;-74
2022/12/07 13:51:22;;;;;;;;;;;4.20;99.90;;;;;;4978485;28;19937;-73
2022/12/07 13:54:07;;;;;;;;;;;4.20;99.90;;;;;;4963490;28;19926;-74
2022/12/07 13:56:34;;;;;;;;;;;4.20;99.90;;;;;;4937265;28;20725;-74
2022/12/07 13:59:00;;;;;;;;;;;4.20;99.90;;;;;;4947778;28;20072;-74
2022/12/07 14:01:25;;;;;;;;;;;4.10;99.90;;;;;;4950475;28;20013;-74
2022/12/07 14:03:51;;;;;;;;;;;4.00;99.90;;;;;;4962771;28;19949;-73
2022/12/07 14:06:20;;;;;;;;;;;3.80;99.90;;;;;;4957399;28;19926;-73
2022/12/07 14:08:46;;;;;;;;;;;3.60;99.90;;;;;;4948501;29;19926;-73
2022/12/07 14:11:16;;;;;;;;;;;3.50;99.90;;;;;;4948277;28;19937;-73
2022/12/07 14:13:52;;;;;;;;;;;3.50;99.90;;;;;;4948296;28;19927;-74
2022/12/07 14:16:18;;;;;;;;;;;3.40;99.90;;;;;;4936775;29;19933;-74
2022/12/07 14:18:43;;;;;;;;;;;3.20;99.90;;;;;;4951070;28;19930;-74
2022/12/07 14:21:09;;;;;;;;;;;3.10;99.90;;;;;;4967346;28;19931;-74
2022/12/07 14:23:35;;;;;;;;;;;3.00;99.90;;;;;;4964960;28;20010;-74
2022/12/07 14:26:10;;;;;;;;;;;2.90;99.90;;;;;;4938695;28;20078;-74
2022/12/07 14:28:37;;;;;;;;;;;2.80;99.90;;;;;;4968922;28;20438;-74
2022/12/07 14:31:03;;;;;;;;;;;2.70;99.90;;;;;;4956663;28;20058;-74
2022/12/07 14:33:28;;;;;;;;;;;2.60;99.90;;;;;;4945969;28;20009;-74
2022/12/07 14:35:57;;;;;;;;;;;2.50;99.90;;;;;;4952499;28;19926;-74
2022/12/07 14:38:24;;;;;;;;;;;2.50;99.90;;;;;;4957914;28;19929;-74
2022/12/07 14:40:50;;;;;;;;;;;2.40;99.90;;;;;;4948167;28;19970;-74
2022/12/07 14:43:16;;;;;;;;;;;2.30;99.90;;;;;;4947355;28;19926;-74
2022/12/07 14:45:42;;;;;;;;;;;2.20;99.90;;;;;;4931624;29;19933;-74